createdAt,value
2022-08-17T00:00:34.937Z,8.40
2022-08-17T00:03:10.139Z,7.90
2022-08-17T00:05:43.638Z,8.20
2022-08-17T00:08:14.776Z,7.70
2022-08-17T00:10:44.098Z,8.30
2022-08-17T00:13:26.045Z,8.40
2022-08-17T00:15:59.777Z,8.30
2022-08-17T00:19:00.898Z,7.50
2022-08-17T00:21:23.908Z,8.30
2022-08-17T00:23:53.780Z,8.20
2022-08-17T00:26:34.650Z,8.60
2022-08-17T00:29:14.923Z,8.50
2022-08-17T00:31:48.863Z,8.20
2022-08-17T00:34:17.080Z,7.50
2022-08-17T00:36:45.018Z,8.30
2022-08-17T00:39:12.718Z,8.50
2022-08-17T00:41:42.510Z,8.20
2022-08-17T00:44:12.161Z,8.00
2022-08-17T00:46:42.191Z,8.00
2022-08-17T00:49:11.576Z,8.60
2022-08-17T00:51:54.815Z,9.30
2022-08-17T00:54:27.091Z,8.20
2022-08-17T00:56:59.190Z,8.00
2022-08-17T00:59:33.301Z,7.50
2022-08-17T01:02:02.639Z,7.80
2022-08-17T01:04:32.162Z,8.60
2022-08-17T01:07:01.790Z,8.20
2022-08-17T01:09:30.071Z,7.90
2022-08-17T01:11:57.807Z,8.00
2022-08-17T01:14:26.117Z,8.30
2022-08-17T01:16:55.733Z,8.60
2022-08-17T01:19:30.715Z,7.80
2022-08-17T01:22:07.368Z,7.80
2022-08-17T01:24:37.297Z,7.40
2022-08-17T01:27:10.086Z,8.90
2022-08-17T01:29:41.111Z,9.30
2022-08-17T01:32:10.118Z,8.40
2022-08-17T01:34:42.841Z,8.70
2022-08-17T01:37:14.208Z,8.30
2022-08-17T01:39:42.129Z,8.80
2022-08-17T01:42:30.827Z,9.50
2022-08-17T01:45:03.193Z,8.10
2022-08-17T01:47:31.149Z,8.60
2022-08-17T01:50:04.122Z,7.50
2022-08-17T01:52:32.107Z,8.10
2022-08-17T01:54:59.908Z,8.60
2022-08-17T01:57:27.572Z,8.50
2022-08-17T01:59:55.236Z,8.30
2022-08-17T02:02:31.175Z,8.60
2022-08-17T02:04:59.744Z,8.50
2022-08-17T02:07:28.114Z,9.20
2022-08-17T02:09:56.941Z,7.70
2022-08-17T02:12:38.172Z,7.90
2022-08-17T02:15:09.940Z,8.70
2022-08-17T02:17:37.781Z,8.10
2022-08-17T02:20:06.272Z,8.70
2022-08-17T02:22:35.293Z,8.20
2022-08-17T02:25:04.269Z,7.70
2022-08-17T02:27:31.927Z,8.30
2022-08-17T02:29:59.531Z,7.80
2022-08-17T02:32:28.645Z,8.20
2022-08-17T02:34:58.019Z,7.80
2022-08-17T02:37:27.493Z,8.30
2022-08-17T02:39:57.136Z,7.90
2022-08-17T02:42:38.401Z,8.10
2022-08-17T02:45:19.932Z,7.40
2022-08-17T02:47:47.624Z,7.60
2022-08-17T02:50:17.843Z,8.40
2022-08-17T02:52:47.497Z,8.10
2022-08-17T02:55:34.288Z,7.10
2022-08-17T02:58:03.725Z,7.10
2022-08-17T03:00:51.100Z,7.60
2022-08-17T03:03:19.071Z,8.20
2022-08-17T03:05:51.297Z,8.00
2022-08-17T03:08:19.801Z,7.90
2022-08-17T03:10:47.455Z,7.60
2022-08-17T03:13:15.707Z,7.60
2022-08-17T03:15:45.501Z,8.30
2022-08-17T03:18:20.109Z,8.20
2022-08-17T03:21:00.073Z,7.30
2022-08-17T03:23:29.675Z,7.40
2022-08-17T03:25:59.714Z,7.20
2022-08-17T03:28:28.339Z,7.40
2022-08-17T03:30:56.092Z,8.50
2022-08-17T03:33:23.834Z,8.40
2022-08-17T03:35:51.986Z,8.00
2022-08-17T03:38:20.079Z,7.50
2022-08-17T03:40:58.866Z,7.90
2022-08-17T03:43:30.036Z,7.80
2022-08-17T03:46:27.607Z,7.40
2022-08-17T03:49:16.052Z,7.20
2022-08-17T03:52:02.529Z,7.10
2022-08-17T03:54:49.289Z,8.00
2022-08-17T03:57:17.531Z,8.30
2022-08-17T03:59:45.404Z,7.70
2022-08-17T04:02:19.040Z,8.40
2022-08-17T04:04:50.989Z,7.60
2022-08-17T04:07:20.898Z,7.70
2022-08-17T04:09:48.808Z,8.10
2022-08-17T04:12:18.445Z,8.50
2022-08-17T04:14:53.503Z,8.10
2022-08-17T04:17:27.666Z,7.40
2022-08-17T04:19:55.765Z,8.50
2022-08-17T04:22:31.095Z,7.50
2022-08-17T04:25:07.147Z,8.10
2022-08-17T04:27:35.097Z,6.90
2022-08-17T04:30:03.832Z,8.00
2022-08-17T04:33:04.973Z,7.50
2022-08-17T04:35:21.568Z,7.50
2022-08-17T04:37:49.787Z,7.50
2022-08-17T04:40:37.440Z,8.00
2022-08-17T04:43:08.732Z,7.60
2022-08-17T04:45:51.298Z,6.80
2022-08-17T04:48:29.828Z,8.10
2022-08-17T04:51:07.410Z,8.30
2022-08-17T04:53:35.795Z,7.80
2022-08-17T04:56:04.347Z,8.00
2022-08-17T04:58:32.302Z,7.40
2022-08-17T05:01:00.292Z,7.10
2022-08-17T05:03:28.434Z,8.10
2022-08-17T05:05:56.106Z,8.20
2022-08-17T05:08:23.817Z,7.00
2022-08-17T05:10:52.151Z,7.10
2022-08-17T05:13:25.135Z,7.20
2022-08-17T05:15:55.199Z,7.40
2022-08-17T05:18:24.480Z,7.30
2022-08-17T05:20:52.730Z,6.30
2022-08-17T05:23:22.709Z,6.90
2022-08-17T05:25:52.617Z,7.10
2022-08-17T05:28:24.112Z,7.50
2022-08-17T05:30:56.747Z,7.10
2022-08-17T05:33:27.741Z,6.60
2022-08-17T05:35:57.534Z,6.30
2022-08-17T05:38:28.118Z,6.90
2022-08-17T05:40:56.659Z,6.90
2022-08-17T05:43:30.302Z,7.80
2022-08-17T05:46:13.193Z,7.50
2022-08-17T05:48:47.732Z,6.80
2022-08-17T05:51:37.872Z,6.20
2022-08-17T05:54:23.521Z,6.40
2022-08-17T05:57:05.873Z,6.30
2022-08-17T05:59:57.369Z,7.20
2022-08-17T06:02:51.327Z,7.20
2022-08-17T06:05:58.197Z,6.30
2022-08-17T06:08:52.738Z,6.10
2022-08-17T06:11:24.103Z,6.10
2022-08-17T06:14:09.808Z,6.70
2022-08-17T06:16:42.866Z,7.60
2022-08-17T06:19:45.771Z,7.70
2022-08-17T06:22:16.573Z,7.70
2022-08-17T06:24:47.196Z,6.50
2022-08-17T06:27:54.047Z,6.10
2022-08-17T06:30:25.488Z,6.50
2022-08-17T06:32:56.258Z,6.60
2022-08-17T06:35:37.075Z,6.90
2022-08-17T06:38:55.693Z,7.10
2022-08-17T06:41:29.164Z,7.20
2022-08-17T06:44:43.537Z,5.40
2022-08-17T06:47:28.473Z,4.60
2022-08-17T06:50:15.632Z,5.30
2022-08-17T06:53:27.007Z,5.70
2022-08-17T06:56:09.353Z,6.00
2022-08-17T06:58:40.398Z,6.00
2022-08-17T07:01:09.906Z,5.90
2022-08-17T07:03:49.855Z,4.40
2022-08-17T07:06:20.810Z,4.70
2022-08-17T07:09:00.060Z,4.90
2022-08-17T07:11:37.975Z,5.10
2022-08-17T07:14:36.751Z,5.30
2022-08-17T07:17:11.434Z,5.70
2022-08-17T07:19:41.377Z,5.50
2022-08-17T07:22:14.606Z,5.40
2022-08-17T07:24:52.399Z,5.40
2022-08-17T07:27:23.578Z,5.30
2022-08-17T07:29:58.388Z,5.00
2022-08-17T07:32:31.785Z,5.70
2022-08-17T07:35:04.573Z,5.70
2022-08-17T07:37:33.349Z,5.50
2022-08-17T07:40:16.977Z,5.90
2022-08-17T07:43:14.026Z,4.50
2022-08-17T07:46:33.682Z,4.10
2022-08-17T07:49:03.180Z,3.90
2022-08-17T07:51:33.868Z,4.70
2022-08-17T07:54:15.111Z,4.60
2022-08-17T07:56:47.318Z,5.10
2022-08-17T07:59:43.307Z,5.70
2022-08-17T08:02:17.143Z,5.10
2022-08-17T08:05:01.011Z,5.00
2022-08-17T08:07:38.203Z,5.00
2022-08-17T08:10:27.887Z,4.50
2022-08-17T08:13:23.467Z,4.90
2022-08-17T08:15:56.622Z,4.80
2022-08-17T08:18:54.605Z,4.70
2022-08-17T08:21:54.822Z,4.80
2022-08-17T08:24:41.289Z,4.60
2022-08-17T08:27:11.652Z,5.30
2022-08-17T08:29:52.862Z,4.70
2022-08-17T08:32:36.903Z,4.70
2022-08-17T08:35:33.784Z,5.20
2022-08-17T08:38:34.504Z,4.60
2022-08-17T08:41:36.957Z,4.80
2022-08-17T08:44:59.769Z,4.60
2022-08-17T08:47:45.130Z,5.30
2022-08-17T08:50:37.429Z,5.60
2022-08-17T08:53:23.995Z,5.90
2022-08-17T08:56:16.636Z,6.70
2022-08-17T08:58:50.813Z,5.20
2022-08-17T09:01:42.459Z,4.70
2022-08-17T09:05:12.790Z,5.40
2022-08-17T09:07:57.280Z,4.40
2022-08-17T09:10:25.634Z,5.40
2022-08-17T09:13:10.207Z,6.50
2022-08-17T09:15:44.103Z,5.10
2022-08-17T09:19:00.458Z,4.40
2022-08-17T09:21:33.617Z,4.20
2022-08-17T09:24:05.937Z,3.70
2022-08-17T09:26:37.570Z,3.60
2022-08-17T09:29:14.558Z,3.40
2022-08-17T09:32:05.672Z,3.90
2022-08-17T09:34:44.547Z,3.20
2022-08-17T09:37:25.443Z,3.20
2022-08-17T09:39:53.073Z,3.00
2022-08-17T09:42:36.225Z,3.10
2022-08-17T09:45:34.825Z,2.90
2022-08-17T09:48:10.586Z,2.90
2022-08-17T09:51:12.829Z,3.10
2022-08-17T09:53:41.434Z,3.10
2022-08-17T09:56:32.458Z,4.80
2022-08-17T09:59:20.169Z,3.50
2022-08-17T10:02:25.948Z,2.90
2022-08-17T10:04:53.748Z,2.90
2022-08-17T10:07:32.509Z,3.00
2022-08-17T10:10:14.425Z,3.50
2022-08-17T10:13:11.088Z,3.10
2022-08-17T10:15:46.893Z,3.00
2022-08-17T10:18:21.445Z,3.10
2022-08-17T10:20:49.089Z,3.30
2022-08-17T10:23:45.306Z,3.10
2022-08-17T10:26:18.896Z,3.00
2022-08-17T10:29:01.764Z,3.20
2022-08-17T10:31:37.701Z,3.10
2022-08-17T10:34:30.011Z,3.60
2022-08-17T10:37:06.784Z,3.20
2022-08-17T10:40:00.859Z,3.70
2022-08-17T10:42:33.170Z,3.60
2022-08-17T10:45:16.420Z,3.50
2022-08-17T10:48:05.781Z,3.90
2022-08-17T10:50:49.715Z,3.50
2022-08-17T10:53:32.665Z,3.90
2022-08-17T10:56:22.364Z,3.40
2022-08-17T10:58:57.341Z,3.40
2022-08-17T11:01:34.215Z,3.40
2022-08-17T11:04:42.648Z,4.00
2022-08-17T11:07:35.274Z,3.50
2022-08-17T11:10:46.479Z,3.30
2022-08-17T11:13:30.197Z,3.80
2022-08-17T11:16:10.005Z,3.60
2022-08-17T11:19:14.673Z,4.10
2022-08-17T11:22:00.853Z,4.10
2022-08-17T11:24:40.480Z,3.50
2022-08-17T11:27:29.532Z,3.60
2022-08-17T11:30:02.509Z,3.70
2022-08-17T11:32:48.690Z,3.90
2022-08-17T11:35:20.702Z,3.60
2022-08-17T11:38:01.845Z,3.50
2022-08-17T11:40:36.210Z,3.20
2022-08-17T11:43:09.794Z,3.80
2022-08-17T11:46:14.773Z,3.70
2022-08-17T11:49:17.550Z,3.80
2022-08-17T11:52:32.292Z,3.60
2022-08-17T11:55:17.766Z,3.90
2022-08-17T11:58:02.341Z,3.80
2022-08-17T12:00:45.232Z,3.90
2022-08-17T12:03:43.286Z,4.10
2022-08-17T12:06:30.434Z,3.70
2022-08-17T12:09:09.266Z,3.80
2022-08-17T12:12:01.707Z,3.50
2022-08-17T12:15:07.994Z,3.70
2022-08-17T12:17:41.670Z,3.50
2022-08-17T12:22:54.911Z,3.10
2022-08-17T12:25:33.116Z,3.50
2022-08-17T12:28:05.121Z,3.40
2022-08-17T12:30:35.899Z,3.60
2022-08-17T12:33:03.971Z,3.30
2022-08-17T12:35:35.257Z,3.20
2022-08-17T12:38:28.105Z,3.00
2022-08-17T12:40:58.275Z,3.10
2022-08-17T12:43:32.841Z,2.60
2022-08-17T12:46:14.794Z,2.80
2022-08-17T12:48:59.389Z,2.60
2022-08-17T12:51:29.197Z,2.80
2022-08-17T12:53:57.442Z,2.80
2022-08-17T12:56:25.258Z,3.00
2022-08-17T12:58:54.452Z,3.10
2022-08-17T13:01:25.052Z,3.00
2022-08-17T13:03:59.791Z,3.10
2022-08-17T13:06:34.193Z,3.10
2022-08-17T13:09:15.353Z,3.10
2022-08-17T13:14:18.625Z,3.50
2022-08-17T13:16:59.562Z,3.30
2022-08-17T13:19:40.172Z,3.40
2022-08-17T13:22:12.928Z,3.50
2022-08-17T13:24:53.128Z,3.60
2022-08-17T13:27:24.405Z,3.50
2022-08-17T13:29:57.340Z,3.50
2022-08-17T13:32:31.110Z,3.40
2022-08-17T13:35:14.156Z,3.70
2022-08-17T13:37:59.581Z,3.50
2022-08-17T13:40:50.286Z,3.70
2022-08-17T13:43:37.358Z,3.60
2022-08-17T13:46:17.675Z,3.40
2022-08-17T13:48:46.013Z,3.40
2022-08-17T13:51:18.664Z,3.50
2022-08-17T13:53:50.506Z,3.30
2022-08-17T13:56:31.667Z,3.40
2022-08-17T13:59:08.056Z,3.30
2022-08-17T14:01:37.042Z,3.40
2022-08-17T14:04:17.431Z,3.40
2022-08-17T14:06:55.644Z,3.50
2022-08-17T14:09:36.795Z,3.50
2022-08-17T14:12:12.587Z,3.20
2022-08-17T14:14:40.816Z,3.70
2022-08-17T14:17:09.648Z,3.50
2022-08-17T14:19:37.456Z,3.10
2022-08-17T14:22:09.053Z,3.40
2022-08-17T14:24:44.629Z,3.50
2022-08-17T14:27:12.726Z,3.10
2022-08-17T14:29:44.001Z,3.10
2022-08-17T14:32:19.004Z,3.40
2022-08-17T14:34:49.556Z,3.30
2022-08-17T14:37:18.466Z,3.70
2022-08-17T14:39:46.276Z,3.70
2022-08-17T14:42:17.591Z,3.80
2022-08-17T14:47:15.930Z,4.00
2022-08-17T14:49:43.870Z,4.10
2022-08-17T14:52:21.583Z,4.10
2022-08-17T14:54:54.021Z,3.80
2022-08-17T14:57:33.764Z,3.80
2022-08-17T15:00:04.480Z,4.10
2022-08-17T15:02:46.742Z,4.50
2022-08-17T15:05:16.387Z,4.00
2022-08-17T15:07:44.601Z,3.50
2022-08-17T15:10:14.310Z,4.30
2022-08-17T15:12:42.359Z,3.90
2022-08-17T15:15:14.447Z,4.80
2022-08-17T15:17:46.034Z,3.80
2022-08-17T15:20:18.528Z,4.00
2022-08-17T15:22:49.915Z,4.00
2022-08-17T15:25:19.127Z,3.80
2022-08-17T15:27:47.661Z,4.10
2022-08-17T15:30:15.812Z,4.20
2022-08-17T15:32:51.263Z,4.30
2022-08-17T15:35:28.359Z,4.30
2022-08-17T15:38:11.712Z,4.30
2022-08-17T15:40:45.640Z,4.70
2022-08-17T15:43:27.261Z,4.60
2022-08-17T15:46:10.549Z,4.60
2022-08-17T15:48:41.808Z,5.10
2022-08-17T15:51:14.051Z,4.40
2022-08-17T15:56:11.314Z,4.60
2022-08-17T15:58:40.215Z,5.10
2022-08-17T16:01:16.458Z,4.40
2022-08-17T16:04:04.731Z,5.10
2022-08-17T16:06:35.061Z,5.00
2022-08-17T16:09:02.766Z,5.00
2022-08-17T16:11:30.404Z,5.30
2022-08-17T16:13:58.073Z,5.90
2022-08-17T16:16:26.130Z,5.70
2022-08-17T16:18:58.798Z,5.50
2022-08-17T16:21:27.549Z,6.00
2022-08-17T16:24:00.233Z,6.80
2022-08-17T16:26:29.476Z,7.30
2022-08-17T16:28:59.432Z,7.20
2022-08-17T16:31:27.684Z,7.60
2022-08-17T16:33:58.480Z,8.50
2022-08-17T16:36:55.182Z,7.90
2022-08-17T16:39:26.660Z,7.70
2022-08-17T16:41:56.082Z,7.20
2022-08-17T16:44:29.034Z,7.00
2022-08-17T16:46:57.510Z,7.00
2022-08-17T16:49:37.332Z,7.00
2022-08-17T16:52:10.168Z,7.10
2022-08-17T16:54:43.654Z,7.70
2022-08-17T16:57:13.414Z,7.20
2022-08-17T16:59:44.984Z,7.00
2022-08-17T17:02:23.511Z,7.20
2022-08-17T17:05:04.676Z,6.60
2022-08-17T17:08:01.704Z,7.40
2022-08-17T17:10:50.841Z,7.30
2022-08-17T17:13:27.956Z,7.50
2022-08-17T17:16:21.728Z,7.10
2022-08-17T17:19:07.962Z,7.50
2022-08-17T17:21:52.913Z,7.00
2022-08-17T17:24:30.305Z,7.00
2022-08-17T17:27:22.845Z,7.60
2022-08-17T17:30:07.447Z,7.60
2022-08-17T17:32:38.170Z,7.20
2022-08-17T17:35:18.908Z,7.40
2022-08-17T17:37:47.551Z,7.40
2022-08-17T17:40:24.524Z,6.60
2022-08-17T17:42:55.251Z,6.20
2022-08-17T17:45:32.076Z,6.20
2022-08-17T17:47:59.766Z,7.10
2022-08-17T17:50:36.511Z,8.30
2022-08-17T17:53:19.204Z,7.90
2022-08-17T17:56:44.282Z,7.80
2022-08-17T17:59:32.902Z,7.60
2022-08-17T18:02:51.571Z,7.80
2022-08-17T18:05:48.779Z,8.30
2022-08-17T18:08:34.387Z,6.80
2022-08-17T18:11:14.951Z,6.70
2022-08-17T18:14:14.874Z,6.50
2022-08-17T18:16:43.258Z,7.40
2022-08-17T18:19:15.731Z,7.60
2022-08-17T18:21:48.629Z,8.50
2022-08-17T18:24:29.315Z,7.90
2022-08-17T18:26:59.698Z,8.70
2022-08-17T18:29:35.868Z,7.30
2022-08-17T18:32:24.617Z,7.30
2022-08-17T18:35:18.232Z,8.30
2022-08-17T18:38:10.347Z,9.10
2022-08-17T18:40:38.543Z,8.50
2022-08-17T18:43:28.179Z,10.40
2022-08-17T18:46:17.922Z,10.50
2022-08-17T18:49:00.477Z,8.30
2022-08-17T18:51:42.117Z,8.40
2022-08-17T18:54:21.326Z,8.70
2022-08-17T18:56:57.862Z,8.70
2022-08-17T18:59:42.080Z,9.40
2022-08-17T19:02:20.647Z,10.10
2022-08-17T19:05:27.296Z,10.80
2022-08-17T19:08:16.062Z,10.40
2022-08-17T19:10:47.356Z,7.90
2022-08-17T19:13:24.555Z,9.00
2022-08-17T19:16:14.001Z,9.10
2022-08-17T19:18:54.184Z,9.40
2022-08-17T19:21:27.026Z,10.20
2022-08-17T19:24:00.678Z,10.10
2022-08-17T19:26:53.928Z,9.80
2022-08-17T19:29:42.002Z,8.80
2022-08-17T19:32:16.536Z,8.50
2022-08-17T19:34:44.731Z,8.50
2022-08-17T19:37:26.292Z,8.80
2022-08-17T19:40:51.664Z,9.50
2022-08-17T19:43:37.982Z,9.60
2022-08-17T19:46:29.909Z,7.90
2022-08-17T19:49:09.921Z,8.30
2022-08-17T19:52:00.396Z,8.40
2022-08-17T19:54:55.330Z,8.50
2022-08-17T19:57:40.781Z,9.30
2022-08-17T20:00:13.592Z,9.30
2022-08-17T20:02:54.984Z,8.10
2022-08-17T20:05:29.465Z,7.80
2022-08-17T20:08:08.583Z,7.60
2022-08-17T20:10:54.442Z,8.80
2022-08-17T20:13:39.256Z,9.80
2022-08-17T20:16:07.985Z,9.30
2022-08-17T20:18:58.732Z,8.50
2022-08-17T20:21:37.326Z,8.30
2022-08-17T20:24:16.224Z,8.40
2022-08-17T20:27:10.108Z,9.10
2022-08-17T20:30:02.701Z,9.50
2022-08-17T20:32:35.495Z,10.60
2022-08-17T20:37:34.840Z,8.00
2022-08-17T20:40:05.926Z,8.30
2022-08-17T20:42:35.136Z,8.40
2022-08-17T20:45:25.121Z,8.80
2022-08-17T20:48:22.233Z,9.90
2022-08-17T20:50:51.489Z,8.30
2022-08-17T20:54:05.680Z,8.10
2022-08-17T20:56:47.350Z,8.50
2022-08-17T20:59:20.724Z,8.70
2022-08-17T21:02:18.091Z,8.90
2022-08-17T21:04:50.040Z,7.90
2022-08-17T21:07:43.479Z,7.80
2022-08-17T21:10:23.889Z,8.40
2022-08-17T21:13:23.048Z,8.20
2022-08-17T21:15:56.649Z,8.70
2022-08-17T21:18:33.210Z,9.40
2022-08-17T21:21:22.480Z,7.90
2022-08-17T21:23:58.903Z,8.30
2022-08-17T21:27:00.895Z,8.60
2022-08-17T21:29:33.840Z,8.60
2022-08-17T21:32:06.639Z,9.30
2022-08-17T21:34:37.695Z,9.40
2022-08-17T21:37:20.502Z,8.60
2022-08-17T21:40:18.504Z,8.10
2022-08-17T21:42:49.527Z,8.00
2022-08-17T21:45:26.066Z,8.60
2022-08-17T21:48:06.088Z,8.80
2022-08-17T21:50:35.574Z,8.10
2022-08-17T21:53:04.027Z,7.50
2022-08-17T21:55:33.407Z,8.40
2022-08-17T21:58:14.824Z,9.00
2022-08-17T22:00:46.136Z,10.10
2022-08-17T22:03:25.977Z,8.40
2022-08-17T22:05:53.638Z,8.30
2022-08-17T22:08:25.026Z,9.40
2022-08-17T22:11:01.598Z,8.50
2022-08-17T22:13:29.924Z,9.10
2022-08-17T22:16:03.777Z,8.90
2022-08-17T22:18:44.827Z,8.30
2022-08-17T22:21:12.471Z,8.90
2022-08-17T22:24:01.458Z,7.90
2022-08-17T22:27:03.293Z,8.20
2022-08-17T22:29:48.238Z,9.60
2022-08-17T22:32:43.840Z,9.10
2022-08-17T22:35:30.165Z,8.00
2022-08-17T22:38:20.369Z,8.30
2022-08-17T22:40:55.899Z,9.60
2022-08-17T22:43:28.468Z,9.40
2022-08-17T22:45:59.374Z,9.80
2022-08-17T22:48:29.399Z,9.50
2022-08-17T22:51:13.750Z,10.00
2022-08-17T22:54:20.224Z,10.70
2022-08-17T22:57:13.340Z,10.50
2022-08-17T23:02:19.683Z,9.20
2022-08-17T23:05:13.030Z,9.40
2022-08-17T23:07:42.407Z,8.60
2022-08-17T23:10:13.076Z,9.40
2022-08-17T23:12:41.110Z,10.40
2022-08-17T23:15:14.461Z,10.50
2022-08-17T23:17:42.418Z,9.40
2022-08-17T23:20:15.824Z,9.10
2022-08-17T23:22:52.131Z,10.50
2022-08-17T23:25:31.914Z,9.80
2022-08-17T23:28:01.884Z,10.60
2022-08-17T23:30:35.001Z,9.10
2022-08-17T23:33:15.365Z,9.90
2022-08-17T23:35:43.966Z,10.40
2022-08-17T23:38:13.247Z,9.50
2022-08-17T23:40:41.332Z,9.90
2022-08-17T23:45:59.680Z,8.90
2022-08-17T23:48:35.937Z,9.30
2022-08-17T23:51:14.128Z,7.50
2022-08-17T23:53:47.317Z,10.00
2022-08-17T23:56:15.766Z,11.00
2022-08-17T23:58:44.865Z,10.60
